Konstanz, Germany

6:05 AM CEST on September 15, 2014 (GMT +0200)
Taegerwilen | Change Station
CLOSE
Current Station
Personal Weather Station
Location: Taegerwilen, THURGAU
Elevation: 1420 ft
Nearby Weather Stations

Elev 1420 ft 47.65 °N, 9.13 °E | Updated 31 seconds ago

Mostly Cloudy
Mostly Cloudy
57.2 °F
Feels Like 57.2 °F
N
0.0
Wind Variable Wind from ENE
Gusts 0.0 mph

Today
High -- | Low -- °F
--% Chance of Precip.
Yesterday
High -- | Low -- °F
Precip. -- in
7:00 AM 7:35 PM
Waning Gibbous, 59% visible
Pressure 30.01 in
Visibility -9999.0 miles
Clouds Mostly Cloudy 1500 ft
Mostly Cloudy 2000 ft
Dew Point 56 °F
Humidity 95%
Rainfall 0.00 in
Snow Depth Not available.
UV 0.0 out of 12
Pollen Not available.
Air Quality Not available.
Flu Activity Not available.
METAR EDNY 150350Z 06004KT 4300 BR BKN015 BKN020 12/11 Q1016 RMK ATIS A

More Conditions Fewer Conditions

Pressure 30.01 in
Visibility -9999.0 miles
Clouds Mostly Cloudy 1500 ft
Mostly Cloudy 2000 ft
Dew Point 56 °F
Humidity 95%
Rainfall 0.00 in
Snow Depth Not available.
UV 0.0 out of 12
Pollen Not available.
Air Quality Not available.
Flu Activity Not available.
METAR EDNY 150350Z 06004KT 4300 BR BKN015 BKN020 12/11 Q1016 RMK ATIS A

More Conditions Fewer Conditions

10-Day Weather Forecast

Almanac

Astronomy

Sep. 15, 2014 Rise Set
Actual Time 7:00 AM CEST 7:35 PM CEST
Civil Twilight 6:29 AM CEST 8:06 PM CEST
Nautical Twilight 5:52 AM CEST 8:43 PM CEST
Astronomical Twilight 5:13 AM CEST 9:22 PM CEST
Moon 11:39 PM CEST 2:11 PM CEST
Length of Visible Light 13h 37m
Length of Day
12h 35m
Tomorrow will be 3m 24s shorter.
Waning Gibbous, 59% of the Moon is Illuminated
Today
Waning Gibbous
Sep 15
Last Quarter
Sep 24
New
Oct 1
First Quarter
Oct 8
Full

Yesterday's Extremes

Country Highs Country Lows

Community

WunderPhotos

Upload Photos

1,753,398 photos uploaded!

Nearby

Snow Depth

Not available.

Earthquake Activity

City Distance Mag. Time & Date
No recent earthquake activity has been reported nearby.
Minimum magnitude displayed is 2.5.

Coastal Water Temperatures

Place Temperature
No Stations Reporting

Nearby Weather Stations